Edgar B Speer — WQZ9670 — position and weather

sailwx.info

Track history (hours):
 
Tides and Currents Weather Stations Pressure Air Temp Water Temp Dewpoint Dewpoint Depression Visibility Wind Speed Wind Dir Waves Ship Positions

Edgar B Speer

More information available from US FCC via Universal Licensing System and Coast Guard Vessel Documentation Center.

Last reported at 2014-Aug-30 07:33 UTC. Time now 2014-Aug-30 08:35 UTC.
Position N 45°53' W 084°12'.

Length 306 m; draft 8 m.

Type: Cargo ship. MMSI: 366971330.

Date/timePositionNaut miles runAvg speedWind from/ knotsBaromVisibWave heightAir tempDewpointWater temp
2014-Aug-30 07:33N 45°53' W 084°12'1010.1
2014-Aug-30 06:33N 45°56' W 083°58'11 7.5
2014-Aug-30 05:04N 46°06' W 084°01'  
2014-Aug-26 17:07N 46°06' W 084°01'13 8.4
2014-Aug-26 15:33N 45°53' W 084°02'1313.1
2014-Aug-26 14:33N 45°51' W 084°20'1313.3
2014-Aug-26 13:33N 45°50' W 084°39'1313.4
2014-Aug-26 12:33N 45°49' W 084°59'10 9.6
2014-Aug-26 11:33N 45°44' W 085°10'1313.5
2014-Aug-26 10:33N 45°33' W 085°22'1413.5
2014-Aug-26 09:33N 45°23' W 085°33'1413.6
2014-Aug-26 08:33N 45°12' W 085°45'1313.4
2014-Aug-26 07:33N 45°01' W 085°56'1413.6
2014-Aug-26 06:33N 44°54' W 086°13'1414.0
2014-Aug-26 05:32N 44°41' W 086°22'1813.8
2014-Aug-26 04:13N 44°24' W 086°29'2313.9
2014-Aug-26 02:33N 44°01' W 086°37'1413.6
2014-Aug-26 01:33N 43°48' W 086°41'1413.6
2014-Aug-26 00:33N 43°35' W 086°45'1413.7
2014-Aug-25 23:33N 43°21' W 086°49'90 2.4
2014-Aug-24 10:15N 44°50' W 086°27'912.7
2014-Aug-24 09:33N 44°58' W 086°23'1312.7
2014-Aug-24 08:33N 45°11' W 086°19'1312.7
2014-Aug-24 07:33N 45°23' W 086°14'1212.5
2014-Aug-24 06:33N 45°35' W 086°09'1211.6
2014-Aug-24 05:33N 45°44' W 085°59'1212.5
2014-Aug-24 04:33N 45°50' W 085°43'1212.2
2014-Aug-24 03:33N 45°54' W 085°26'1312.8
2014-Aug-24 02:33N 45°52' W 085°08'1312.8
2014-Aug-24 01:33N 45°50' W 084°50'1111.5
2014-Aug-24 00:33N 45°51' W 084°34'1312.8
2014-Aug-23 23:33N 45°53' W 084°16'1212.1
2014-Aug-23 22:33N 45°55' W 083°58'10 7.2
2014-Aug-23 21:13N 46°05' W 084°01'  
Track history (hours):
 
Tides and Currents Weather Stations Pressure Air Temp Water Temp Dewpoint Dewpoint Depression Visibility Wind Speed Wind Dir Waves Ship Positions

Edgar B Speer

More information available from US FCC via Universal Licensing System and Coast Guard Vessel Documentation Center.

Last reported at 2014-Aug-30 07:33 UTC. Time now 2014-Aug-30 08:35 UTC.
Position N 45°53' W 084°12'.

Length 306 m; draft 8 m.

Type: Cargo ship. MMSI: 366971330.

Date/timePositionNaut miles runAvg speedWind from/ knotsBaromVisibWave heightAir tempDewpointWater temp
2014-Aug-30 07:33N 45°53' W 084°12'1010.1
2014-Aug-30 06:33N 45°56' W 083°58'11 7.5
2014-Aug-30 05:04N 46°06' W 084°01'  
2014-Aug-26 17:07N 46°06' W 084°01'13 8.4
2014-Aug-26 15:33N 45°53' W 084°02'1313.1
2014-Aug-26 14:33N 45°51' W 084°20'1313.3
2014-Aug-26 13:33N 45°50' W 084°39'1313.4
2014-Aug-26 12:33N 45°49' W 084°59'10 9.6
2014-Aug-26 11:33N 45°44' W 085°10'1313.5
2014-Aug-26 10:33N 45°33' W 085°22'1413.5
2014-Aug-26 09:33N 45°23' W 085°33'1413.6
2014-Aug-26 08:33N 45°12' W 085°45'1313.4
2014-Aug-26 07:33N 45°01' W 085°56'1413.6
2014-Aug-26 06:33N 44°54' W 086°13'1414.0
2014-Aug-26 05:32N 44°41' W 086°22'1813.8
2014-Aug-26 04:13N 44°24' W 086°29'2313.9
2014-Aug-26 02:33N 44°01' W 086°37'1413.6
2014-Aug-26 01:33N 43°48' W 086°41'1413.6
2014-Aug-26 00:33N 43°35' W 086°45'1413.7
2014-Aug-25 23:33N 43°21' W 086°49'90 2.4
2014-Aug-24 10:15N 44°50' W 086°27'912.7
2014-Aug-24 09:33N 44°58' W 086°23'1312.7
2014-Aug-24 08:33N 45°11' W 086°19'1312.7
2014-Aug-24 07:33N 45°23' W 086°14'1212.5
2014-Aug-24 06:33N 45°35' W 086°09'1211.6
2014-Aug-24 05:33N 45°44' W 085°59'1212.5
2014-Aug-24 04:33N 45°50' W 085°43'1212.2
2014-Aug-24 03:33N 45°54' W 085°26'1312.8
2014-Aug-24 02:33N 45°52' W 085°08'1312.8
2014-Aug-24 01:33N 45°50' W 084°50'1111.5
2014-Aug-24 00:33N 45°51' W 084°34'1312.8
2014-Aug-23 23:33N 45°53' W 084°16'1212.1
2014-Aug-23 22:33N 45°55' W 083°58'10 7.2
2014-Aug-23 21:13N 46°05' W 084°01'  

Dump ship's entire track history